Time;durP1;ratioP1;P1;durP2;ratioP2;P2;SDS_P1;SDS_P2;PMS_P1;PMS_P2;Temp;Humidity;BMP_temperature;BMP_pressure;BME280_temperature;BME280_humidity;BME280_pressure;Samples;Min_cycle;Max_cycle;Signal;HPM_P1;HPM_P2
2024/01/01 00:00:25;;;;;;;38.60;31.20;;;6.40;99.90;;;;;;5034331;28;20211;-87
2024/01/01 00:02:51;;;;;;;84.53;63.53;;;6.80;99.90;;;;;;5030565;28;20186;-85
2024/01/01 00:05:16;;;;;;;29.03;19.73;;;6.60;99.90;;;;;;5036465;28;20760;-87
2024/01/01 00:07:42;;;;;;;36.87;26.20;;;6.60;99.90;;;;;;5033596;28;20201;-87
2024/01/01 00:10:08;;;;;;;27.63;20.40;;;6.80;99.90;;;;;;5032868;28;20662;-87
2024/01/01 00:12:33;;;;;;;18.00;15.25;;;6.80;99.90;;;;;;5038076;28;20601;-85
2024/01/01 00:14:59;;;;;;;16.97;14.50;;;7.30;99.90;;;;;;5028996;28;20206;-87
2024/01/01 00:17:25;;;;;;;18.45;14.65;;;7.70;99.90;;;;;;5035149;28;20182;-87
2024/01/01 00:19:51;;;;;;;22.33;16.63;;;7.00;99.90;;;;;;5036925;28;20277;-86
2024/01/01 00:22:16;;;;;;;19.90;15.83;;;6.90;99.90;;;;;;5031113;28;20182;-87
2024/01/01 00:24:42;;;;;;;16.40;13.10;;;7.00;99.90;;;;;;5035038;28;20449;-87
2024/01/01 00:27:08;;;;;;;14.80;11.60;;;7.70;99.90;;;;;;5031871;28;20194;-87
2024/01/01 00:29:33;;;;;;;12.63;10.50;;;7.00;99.90;;;;;;5031846;28;20204;-86
2024/01/01 00:31:59;;;;;;;16.67;12.03;;;7.30;99.90;;;;;;5045487;28;20194;-86
2024/01/01 00:34:24;;;;;;;14.90;11.40;;;7.30;99.90;;;;;;5034284;28;20224;-87
2024/01/01 00:36:50;;;;;;;12.67;10.47;;;7.30;99.90;;;;;;5032546;28;20193;-87
2024/01/01 00:39:15;;;;;;;14.67;11.03;;;7.40;99.90;;;;;;5032590;28;20697;-87
2024/01/01 00:41:41;;;;;;;11.70;9.77;;;7.20;99.90;;;;;;5033575;28;20555;-87
2024/01/01 00:44:06;;;;;;;13.60;10.17;;;7.20;99.90;;;;;;5032961;28;20209;-87
2024/01/01 00:46:32;;;;;;;19.73;12.70;;;7.40;99.90;;;;;;5036055;28;20658;-86
2024/01/01 00:48:58;;;;;;;13.90;10.10;;;7.40;99.90;;;;;;5030992;28;20444;-87
2024/01/01 00:51:24;;;;;;;15.02;10.40;;;7.20;99.90;;;;;;5034892;28;20185;-87
2024/01/01 00:53:49;;;;;;;13.07;10.27;;;7.20;99.90;;;;;;5031234;28;20213;-87
2024/01/01 00:56:15;;;;;;;13.27;10.60;;;9.10;99.90;;;;;;5033537;28;20213;-86
2024/01/01 00:58:41;;;;;;;12.00;9.30;;;7.20;99.90;;;;;;5033002;28;20296;-87
2024/01/01 01:01:07;;;;;;;13.50;10.35;;;7.20;99.90;;;;;;5045692;28;20587;-86
2024/01/01 01:03:34;;;;;;;17.07;10.40;;;7.30;99.90;;;;;;5031029;28;20183;-86
2024/01/01 01:06:00;;;;;;;15.70;10.30;;;6.90;99.90;;;;;;5033522;28;21088;-86
2024/01/01 01:08:26;;;;;;;15.23;11.20;;;7.10;99.90;;;;;;5036455;28;20186;-86
2024/01/01 01:10:51;;;;;;;12.90;10.47;;;6.90;99.90;;;;;;5031499;28;20457;-85
2024/01/01 01:13:17;;;;;;;11.10;9.90;;;7.00;99.90;;;;;;5038480;28;20187;-87
2024/01/01 01:15:42;;;;;;;10.87;9.63;;;7.10;99.90;;;;;;5035794;28;20703;-86
2024/01/01 01:18:08;;;;;;;15.40;10.97;;;7.40;99.90;;;;;;5038847;28;20217;-87
2024/01/01 01:20:33;;;;;;;16.20;12.37;;;6.80;99.90;;;;;;5035648;28;20298;-85
2024/01/01 01:22:59;;;;;;;16.83;13.80;;;7.20;99.90;;;;;;5037954;28;20195;-85
2024/01/01 01:25:24;;;;;;;18.10;14.30;;;7.50;99.90;;;;;;5038471;28;20207;-86
2024/01/01 01:27:50;;;;;;;14.53;11.30;;;7.10;99.90;;;;;;5038026;28;20557;-85
2024/01/01 01:30:15;;;;;;;17.13;12.33;;;7.00;99.90;;;;;;5046008;28;20254;-86
2024/01/01 01:32:41;;;;;;;16.40;12.40;;;7.30;99.90;;;;;;5048197;28;20206;-86
2024/01/01 01:35:07;;;;;;;15.30;10.83;;;7.00;99.90;;;;;;5044590;28;20225;-87
2024/01/01 01:37:32;;;;;;;15.03;12.00;;;7.20;99.90;;;;;;5042451;28;20184;-86
2024/01/01 01:39:58;;;;;;;12.00;10.00;;;;;;;;;;5038674;28;20437;-87
2024/01/01 01:42:24;;;;;;;14.43;9.57;;;7.20;99.90;;;;;;5041075;28;20181;-87
2024/01/01 01:44:49;;;;;;;9.13;6.87;;;7.00;99.90;;;;;;5048530;28;20330;-87
2024/01/01 01:47:15;;;;;;;11.90;9.03;;;7.20;99.90;;;;;;5054122;28;20170;-87
2024/01/01 01:49:41;;;;;;;11.85;8.05;;;7.20;99.90;;;;;;5060306;28;20174;-87
2024/01/01 01:52:09;;;;;;;11.27;7.57;;;7.10;99.90;;;;;;5060666;28;20194;-86
2024/01/01 01:54:36;;;;;;;11.43;6.63;;;7.10;99.90;;;;;;5061789;28;20472;-86
2024/01/01 01:57:03;;;;;;;8.88;6.30;;;7.10;99.90;;;;;;5052583;28;20179;-87
2024/01/01 01:59:29;;;;;;;7.72;6.90;;;7.10;99.90;;;;;;5043226;28;20203;-86
2024/01/01 02:01:56;;;;;;;9.05;5.85;;;7.10;99.90;;;;;;5079344;28;20385;-85
2024/01/01 02:04:23;;;;;;;9.32;6.30;;;7.10;99.90;;;;;;5059319;28;20203;-86
2024/01/01 02:06:48;;;;;;;10.55;6.25;;;7.60;99.90;;;;;;5057175;28;20183;-86
2024/01/01 02:09:14;;;;;;;6.37;5.73;;;7.30;99.90;;;;;;5059746;28;20170;-86
2024/01/01 02:11:39;;;;;;;7.27;5.63;;;7.20;99.90;;;;;;5063100;28;20217;-86
2024/01/01 02:14:12;;;;;;;6.83;4.93;;;7.10;99.90;;;;;;5056346;28;20217;-86
2024/01/01 02:16:39;;;;;;;8.48;5.68;;;7.30;99.90;;;;;;5061824;28;20224;-86
2024/01/01 02:19:20;;;;;;;10.23;5.18;;;7.10;99.90;;;;;;5069022;28;20240;-86
2024/01/01 02:21:46;;;;;;;6.97;5.00;;;7.40;99.90;;;;;;5063472;28;20170;-86
2024/01/01 02:24:12;;;;;;;7.05;4.85;;;7.30;99.90;;;;;;5058894;28;20215;-86
2024/01/01 02:26:38;;;;;;;6.37;5.30;;;7.20;99.90;;;;;;5057503;28;20208;-87
2024/01/01 02:29:04;;;;;;;6.70;4.63;;;7.40;99.90;;;;;;5053630;28;20476;-85
2024/01/01 02:31:30;;;;;;;6.28;5.20;;;7.30;99.90;;;;;;5057080;28;20187;-86
2024/01/01 02:33:55;;;;;;;5.67;4.53;;;7.20;99.90;;;;;;5059341;28;20257;-86
2024/01/01 02:36:23;;;;;;;7.27;5.17;;;7.10;99.90;;;;;;5051554;28;20597;-86
2024/01/01 02:38:48;;;;;;;7.45;5.07;;;7.40;99.90;;;;;;5043042;28;20217;-85
2024/01/01 02:41:13;;;;;;;6.10;4.13;;;7.20;99.90;;;;;;5040085;28;20183;-85
2024/01/01 02:43:39;;;;;;;6.63;5.10;;;7.00;99.90;;;;;;5036347;28;20631;-85
2024/01/01 02:46:04;;;;;;;6.83;4.80;;;7.50;99.90;;;;;;5030058;28;20179;-85
2024/01/01 02:48:30;;;;;;;8.37;4.80;;;7.20;99.90;;;;;;5037212;28;20193;-85
2024/01/01 02:50:56;;;;;;;5.47;4.37;;;7.50;99.90;;;;;;5037667;28;20178;-85
2024/01/01 02:53:22;;;;;;;5.57;4.90;;;7.60;99.90;;;;;;5033667;28;20181;-86
2024/01/01 02:55:47;;;;;;;11.10;5.33;;;7.20;99.90;;;;;;5030432;28;20217;-85
2024/01/01 02:58:13;;;;;;;8.43;6.10;;;7.50;99.90;;;;;;5028759;28;20212;-86
2024/01/01 03:00:38;;;;;;;7.00;5.60;;;7.00;99.90;;;;;;5032123;28;20278;-86
2024/01/01 03:03:04;;;;;;;7.20;5.43;;;7.20;99.90;;;;;;5035814;28;20182;-87
2024/01/01 03:05:29;;;;;;;7.67;5.00;;;7.10;99.90;;;;;;5035257;28;20244;-85
2024/01/01 03:07:55;;;;;;;9.20;6.10;;;7.20;99.90;;;;;;5035739;28;20181;-86
2024/01/01 03:10:20;;;;;;;7.70;5.47;;;6.90;99.90;;;;;;5037048;28;20815;-86
2024/01/01 03:12:46;;;;;;;7.20;5.53;;;6.90;99.90;;;;;;5035505;28;20616;-85
2024/01/01 03:15:12;;;;;;;6.77;5.10;;;7.10;99.90;;;;;;5042421;28;20233;-86
2024/01/01 03:17:37;;;;;;;7.20;5.67;;;6.90;99.90;;;;;;5049243;28;20190;-86
2024/01/01 03:20:04;;;;;;;6.80;4.63;;;6.70;99.90;;;;;;5037598;28;20236;-86
2024/01/01 03:22:30;;;;;;;5.75;4.88;;;7.00;99.90;;;;;;5037048;28;20181;-86
2024/01/01 03:24:55;;;;;;;8.07;5.10;;;7.10;99.90;;;;;;5038189;28;20631;-85
2024/01/01 03:27:21;;;;;;;6.80;5.10;;;7.10;99.90;;;;;;5033700;28;20436;-85
2024/01/01 03:29:46;;;;;;;6.70;6.00;;;7.10;99.90;;;;;;5022153;28;20201;-86
2024/01/01 03:32:12;;;;;;;8.03;5.50;;;6.90;99.90;;;;;;5038209;28;20626;-85
2024/01/01 03:34:38;;;;;;;7.77;5.87;;;7.10;99.90;;;;;;5040221;28;20386;-86
2024/01/01 03:37:04;;;;;;;7.53;6.05;;;7.10;99.90;;;;;;5030579;28;20218;-85
2024/01/01 03:39:30;;;;;;;11.47;6.13;;;7.30;99.90;;;;;;5051569;23;20218;-82
2024/01/01 03:41:55;;;;;;;7.60;6.10;;;7.80;99.90;;;;;;5030336;28;20604;-82
2024/01/01 03:44:21;;;;;;;6.80;5.60;;;7.30;99.90;;;;;;5029378;28;20206;-83
2024/01/01 03:46:46;;;;;;;8.47;6.23;;;7.80;99.90;;;;;;5030034;28;20194;-82
2024/01/01 03:49:12;;;;;;;6.67;4.83;;;7.50;99.90;;;;;;5031364;28;20589;-82
2024/01/01 03:51:38;;;;;;;7.60;6.10;;;7.30;99.90;;;;;;5029584;28;20178;-82
2024/01/01 03:54:03;;;;;;;6.30;4.40;;;7.80;99.90;;;;;;5030828;28;20634;-82
2024/01/01 03:56:29;;;;;;;6.77;3.87;;;7.40;99.90;;;;;;5029378;28;20437;-82
2024/01/01 03:58:54;;;;;;;6.07;5.00;;;7.10;99.90;;;;;;5029244;28;20209;-82
2024/01/01 04:01:21;;;;;;;5.90;4.33;;;7.10;99.90;;;;;;5030369;28;20281;-82
2024/01/01 04:03:47;;;;;;;4.75;4.10;;;7.30;99.90;;;;;;5030618;28;20195;-83
2024/01/01 04:06:12;;;;;;;6.60;4.23;;;7.40;99.90;;;;;;5033941;28;20561;-82
2024/01/01 04:08:38;;;;;;;4.53;3.80;;;7.30;99.90;;;;;;5033732;28;20189;-82
2024/01/01 04:11:03;;;;;;;3.33;2.90;;;7.50;99.90;;;;;;5033799;28;20190;-81
2024/01/01 04:13:29;;;;;;;3.87;3.30;;;7.20;99.90;;;;;;5031630;28;20644;-82
2024/01/01 04:15:54;;;;;;;4.90;2.70;;;7.60;99.90;;;;;;5028683;28;20538;-82
2024/01/01 04:18:20;;;;;;;5.63;2.53;;;7.00;99.90;;;;;;5024389;28;22188;-82
2024/01/01 04:20:46;;;;;;;4.40;2.70;;;7.10;99.90;;;;;;5031761;28;20436;-82
2024/01/01 04:23:11;;;;;;;3.40;2.50;;;7.10;99.90;;;;;;5028530;28;20269;-82
2024/01/01 04:25:37;;;;;;;3.67;2.37;;;7.10;99.90;;;;;;5027207;28;20317;-82
2024/01/01 04:28:02;;;;;;;3.30;2.10;;;7.10;99.90;;;;;;5021311;28;20248;-82
2024/01/01 04:30:28;;;;;;;3.27;2.60;;;7.10;99.90;;;;;;5027572;28;20186;-81
2024/01/01 04:32:53;;;;;;;2.93;2.33;;;7.00;99.90;;;;;;5029700;28;20897;-82
2024/01/01 04:35:19;;;;;;;8.33;2.13;;;7.30;99.90;;;;;;5025599;28;20214;-82
2024/01/01 04:37:44;;;;;;;2.33;1.47;;;6.90;99.90;;;;;;5024003;28;20185;-81
2024/01/01 04:40:10;;;;;;;3.30;1.60;;;6.90;99.90;;;;;;5029146;28;20208;-82
2024/01/01 04:42:35;;;;;;;2.60;1.80;;;6.50;99.90;;;;;;5023862;28;20763;-82
2024/01/01 04:45:01;;;;;;;3.60;1.60;;;6.80;99.90;;;;;;5027963;28;20190;-82
2024/01/01 04:47:26;;;;;;;4.20;1.93;;;7.00;99.90;;;;;;5026585;28;20208;-82
2024/01/01 04:49:52;;;;;;;2.00;1.50;;;6.40;99.90;;;;;;5027641;28;20186;-82
2024/01/01 04:52:17;;;;;;;2.97;2.10;;;6.40;99.90;;;;;;5030451;28;20186;-82
2024/01/01 04:54:43;;;;;;;3.40;1.63;;;7.20;99.90;;;;;;5032060;28;20699;-83
2024/01/01 04:57:09;;;;;;;5.00;1.43;;;7.20;99.90;;;;;;5030169;28;20277;-81
2024/01/01 04:59:34;;;;;;;2.03;1.43;;;6.70;99.90;;;;;;5028606;28;20198;-83
2024/01/01 05:02:00;;;;;;;4.30;2.73;;;6.30;99.90;;;;;;5030611;28;20186;-81
2024/01/01 05:04:25;;;;;;;5.77;1.93;;;6.50;99.90;;;;;;5032851;28;20198;-83
2024/01/01 05:06:51;;;;;;;1.90;1.63;;;6.40;99.90;;;;;;5031647;28;20193;-81
2024/01/01 05:09:16;;;;;;;2.67;1.60;;;7.30;99.90;;;;;;5027198;28;20186;-81
2024/01/01 05:11:42;;;;;;;3.40;1.73;;;6.90;99.90;;;;;;5032064;28;20190;-83
2024/01/01 05:14:08;;;;;;;1.50;1.27;;;6.80;99.90;;;;;;5028329;28;20211;-83
2024/01/01 05:16:34;;;;;;;4.00;1.70;;;6.60;99.90;;;;;;5031608;28;20205;-83
2024/01/01 05:19:00;;;;;;;2.47;1.50;;;6.90;99.90;;;;;;5030147;28;20476;-82
2024/01/01 05:21:26;;;;;;;1.75;1.42;;;6.50;99.90;;;;;;5029175;28;20492;-81
2024/01/01 05:23:52;;;;;;;1.50;1.30;;;7.00;99.90;;;;;;5027843;28;20733;-82
2024/01/01 05:26:17;;;;;;;2.30;1.20;;;6.60;99.90;;;;;;5031945;28;20197;-81
2024/01/01 05:28:43;;;;;;;2.63;1.27;;;6.60;99.90;;;;;;5029711;28;20244;-83
2024/01/01 05:31:08;;;;;;;2.50;1.20;;;6.30;99.90;;;;;;5030591;28;20623;-83
2024/01/01 05:33:35;;;;;;;3.87;1.10;;;6.60;99.90;;;;;;5027464;28;20186;-83
2024/01/01 05:36:01;;;;;;;3.42;1.20;;;6.50;99.90;;;;;;5032582;28;20195;-83
2024/01/01 05:38:27;;;;;;;5.07;1.63;;;6.20;99.90;;;;;;5035279;28;20713;-83
2024/01/01 05:40:52;;;;;;;4.73;1.37;;;6.30;99.90;;;;;;5030989;28;20603;-83
2024/01/01 05:43:18;;;;;;;2.20;1.30;;;6.60;99.90;;;;;;5035392;28;20189;-82
2024/01/01 05:45:44;;;;;;;4.13;1.07;;;6.80;99.90;;;;;;5026861;28;20230;-82
2024/01/01 05:48:10;;;;;;;3.20;2.23;;;6.50;99.90;;;;;;5031024;28;20190;-82
2024/01/01 05:50:35;;;;;;;1.73;1.30;;;6.90;99.90;;;;;;5029487;28;20441;-82
2024/01/01 05:53:01;;;;;;;2.97;1.77;;;6.70;99.90;;;;;;5026701;28;20471;-82
2024/01/01 05:55:26;;;;;;;2.63;1.90;;;6.10;99.90;;;;;;5028228;28;20641;-83
2024/01/01 05:57:52;;;;;;;2.40;1.50;;;6.20;99.90;;;;;;5027760;28;20193;-83
2024/01/01 06:00:19;;;;;;;2.53;1.90;;;6.50;99.90;;;;;;5028467;28;20190;-83
2024/01/01 06:02:44;;;;;;;3.80;1.60;;;6.50;99.90;;;;;;5030078;28;20179;-83
2024/01/01 06:05:10;;;;;;;2.33;2.00;;;6.50;99.90;;;;;;5033494;28;20209;-82
2024/01/01 06:07:36;;;;;;;3.23;1.83;;;6.50;99.90;;;;;;5032840;28;20182;-82
2024/01/01 06:10:01;;;;;;;3.10;1.80;;;6.30;99.90;;;;;;5027743;28;20236;-82
2024/01/01 06:12:27;;;;;;;1.70;1.42;;;6.60;99.90;;;;;;5030228;28;20186;-82
2024/01/01 06:14:54;;;;;;;2.23;1.50;;;6.20;99.90;;;;;;5025766;28;21127;-82
2024/01/01 06:17:19;;;;;;;1.88;1.50;;;6.50;99.90;;;;;;5028896;28;20182;-82
2024/01/01 06:19:45;;;;;;;3.00;1.80;;;6.20;99.90;;;;;;5027311;28;20206;-82
2024/01/01 06:22:10;;;;;;;3.00;1.67;;;6.00;99.90;;;;;;5028889;28;20182;-83
2024/01/01 06:24:36;;;;;;;1.77;1.33;;;6.30;99.90;;;;;;5031474;28;21019;-82
2024/01/01 06:27:02;;;;;;;2.17;1.73;;;5.90;99.90;;;;;;5029632;28;20273;-83
2024/01/01 06:29:27;;;;;;;3.17;2.00;;;6.60;99.90;;;;;;5024734;28;20670;-81
2024/01/01 06:31:53;;;;;;;2.47;1.60;;;6.70;99.90;;;;;;5027414;28;20186;-81
2024/01/01 06:34:19;;;;;;;2.30;1.52;;;6.10;99.90;;;;;;5030339;28;20611;-81
2024/01/01 06:36:45;;;;;;;3.20;1.75;;;6.70;99.90;;;;;;5027923;28;20183;-82
2024/01/01 06:39:11;;;;;;;3.30;1.60;;;6.30;99.90;;;;;;5029499;28;20221;-82
2024/01/01 06:41:36;;;;;;;4.10;1.57;;;6.50;99.90;;;;;;5030967;28;20554;-82
2024/01/01 06:44:02;;;;;;;2.30;1.57;;;6.40;99.90;;;;;;5029724;28;20654;-82
2024/01/01 06:46:27;;;;;;;3.90;1.93;;;5.90;99.90;;;;;;5043933;28;20178;-82
2024/01/01 06:48:53;;;;;;;4.20;1.40;;;6.00;99.90;;;;;;5043064;28;20198;-82
2024/01/01 06:51:18;;;;;;;4.33;2.00;;;6.50;99.90;;;;;;5026182;28;20189;-82
2024/01/01 06:53:44;;;;;;;2.43;1.60;;;6.50;99.90;;;;;;5028015;28;20438;-82
2024/01/01 06:56:09;;;;;;;3.37;1.50;;;6.70;99.90;;;;;;5028944;28;20194;-83
2024/01/01 06:58:35;;;;;;;2.50;1.40;;;6.30;99.90;;;;;;5028443;28;20305;-82
2024/01/01 07:01:02;;;;;;;5.63;1.83;;;6.10;99.90;;;;;;5034630;28;20639;-81
2024/01/01 07:03:28;;;;;;;3.03;1.02;;;5.70;99.90;;;;;;5032294;28;20308;-81
2024/01/01 07:05:53;;;;;;;2.60;1.47;;;6.30;99.90;;;;;;5026239;28;20825;-81
2024/01/01 07:08:19;;;;;;;3.10;1.30;;;5.70;99.90;;;;;;5027220;28;20193;-81
2024/01/01 07:10:44;;;;;;;2.77;1.40;;;6.10;99.90;;;;;;5027280;28;20565;-81
2024/01/01 07:13:10;;;;;;;1.77;1.00;;;6.40;99.90;;;;;;5026560;28;20280;-82
2024/01/01 07:15:35;;;;;;;2.50;1.20;;;6.20;99.90;;;;;;5029172;28;20500;-83
2024/01/01 07:18:01;;;;;;;2.07;1.30;;;6.20;99.90;;;;;;5027724;28;20213;-82
2024/01/01 07:20:27;;;;;;;1.33;0.97;;;6.80;99.90;;;;;;5031956;28;20265;-83
2024/01/01 07:22:52;;;;;;;2.73;1.00;;;6.00;99.90;;;;;;5030384;28;20182;-82
2024/01/01 07:25:18;;;;;;;1.80;1.03;;;6.70;99.90;;;;;;5027713;28;20460;-82
2024/01/01 07:27:43;;;;;;;3.33;1.20;;;6.00;99.90;;;;;;5025127;28;20270;-82
2024/01/01 07:30:09;;;;;;;1.67;1.03;;;6.60;99.90;;;;;;5030136;28;20182;-82
2024/01/01 07:32:35;;;;;;;2.00;1.40;;;6.50;99.90;;;;;;5028148;28;20541;-82
2024/01/01 07:35:00;;;;;;;2.33;1.03;;;6.10;99.90;;;;;;5026486;28;20461;-81
2024/01/01 07:37:26;;;;;;;2.13;1.13;;;6.00;99.90;;;;;;5030372;28;20178;-83
2024/01/01 07:39:51;;;;;;;3.80;1.37;;;6.10;99.90;;;;;;5028220;28;20263;-82
2024/01/01 07:42:17;;;;;;;1.73;1.03;;;6.60;99.90;;;;;;5025451;28;20183;-82
2024/01/01 07:44:43;;;;;;;3.45;1.20;;;6.30;99.90;;;;;;5026005;28;20199;-82
2024/01/01 07:47:09;;;;;;;2.07;1.13;;;6.60;99.90;;;;;;5030382;28;20179;-82
2024/01/01 07:49:34;;;;;;;2.40;1.47;;;5.90;99.90;;;;;;5024104;28;20179;-82
2024/01/01 07:52:01;;;;;;;3.73;1.40;;;6.20;99.90;;;;;;5026802;28;20460;-82
2024/01/01 07:54:27;;;;;;;2.28;0.88;;;7.00;99.90;;;;;;5027981;28;20207;-82
2024/01/01 07:56:53;;;;;;;2.40;1.00;;;6.90;99.90;;;;;;5027078;28;20273;-83
2024/01/01 07:59:18;;;;;;;3.40;1.17;;;6.70;99.90;;;;;;5027300;28;20996;-83
2024/01/01 08:01:44;;;;;;;2.83;1.10;;;6.80;99.90;;;;;;5028717;28;20178;-83
2024/01/01 08:04:10;;;;;;;4.70;0.90;;;6.70;99.90;;;;;;5029011;28;20662;-82
2024/01/01 08:06:35;;;;;;;2.10;1.30;;;6.20;99.90;;;;;;5024183;28;20174;-83
2024/01/01 08:09:01;;;;;;;3.27;0.90;;;6.80;99.90;;;;;;5026979;28;20186;-83
2024/01/01 08:11:27;;;;;;;7.20;1.50;;;6.90;99.90;;;;;;5028275;28;21001;-83
2024/01/01 08:13:53;;;;;;;1.30;1.00;;;6.80;99.90;;;;;;5025425;28;20404;-81
2024/01/01 08:16:19;;;;;;;2.07;1.00;;;6.90;99.90;;;;;;5031305;28;20185;-81
2024/01/01 08:18:45;;;;;;;2.10;1.10;;;6.30;99.90;;;;;;5028252;28;21436;-83
2024/01/01 08:21:11;;;;;;;2.03;1.38;;;6.70;99.90;;;;;;5025854;28;20269;-82
2024/01/01 08:23:38;;;;;;;1.50;1.00;;;7.00;99.90;;;;;;5026010;28;20269;-83
2024/01/01 08:26:04;;;;;;;3.65;1.08;;;6.90;99.90;;;;;;5028335;28;20174;-82
2024/01/01 08:28:32;;;;;;;4.07;0.90;;;6.50;99.90;;;;;;5029219;28;20690;-83
2024/01/01 08:31:00;;;;;;;2.28;1.60;;;6.90;99.90;;;;;;5030222;28;20441;-82
2024/01/01 08:33:26;;;;;;;1.85;1.20;;;6.90;99.90;;;;;;5033276;28;20182;-82
2024/01/01 08:35:55;;;;;;;1.53;0.87;;;7.50;99.90;;;;;;5031554;28;20206;-82
2024/01/01 08:38:21;;;;;;;2.67;1.10;;;7.30;99.90;;;;;;5029336;28;20218;-83
2024/01/01 08:40:47;;;;;;;2.30;1.07;;;7.80;99.90;;;;;;5030342;28;20194;-82
2024/01/01 08:43:15;;;;;;;1.93;0.80;;;7.30;99.90;;;;;;5030830;28;20714;-83
2024/01/01 08:45:41;;;;;;;3.05;1.00;;;7.70;99.90;;;;;;5033305;28;20198;-82
2024/01/01 08:48:07;;;;;;;1.87;1.10;;;6.70;99.90;;;;;;5031435;28;20197;-82
2024/01/01 08:50:33;;;;;;;2.97;1.00;;;7.60;99.90;;;;;;5029442;28;20206;-83
2024/01/01 08:52:58;;;;;;;6.23;1.10;;;7.00;99.90;;;;;;5034412;28;20188;-82
2024/01/01 08:55:24;;;;;;;2.60;1.00;;;7.80;99.90;;;;;;5056751;28;20214;-82
2024/01/01 08:57:49;;;;;;;3.30;1.10;;;7.70;99.90;;;;;;5032089;28;20872;-82
2024/01/01 09:00:16;;;;;;;4.53;2.10;;;7.60;99.90;;;;;;5036214;28;20209;-83
2024/01/01 09:02:42;;;;;;;3.40;1.10;;;7.50;99.90;;;;;;5028279;28;20218;-83
2024/01/01 09:05:08;;;;;;;1.77;1.00;;;7.20;99.90;;;;;;5029872;28;20253;-82
2024/01/01 09:07:33;;;;;;;2.90;1.17;;;8.00;99.90;;;;;;5019732;28;20508;-82
2024/01/01 09:10:01;;;;;;;2.33;1.27;;;8.10;99.90;;;;;;5031565;28;20206;-82
2024/01/01 09:12:27;;;;;;;4.15;1.30;;;7.50;99.90;;;;;;5029355;28;20194;-82
2024/01/01 09:14:53;;;;;;;2.90;1.00;;;8.30;99.90;;;;;;5032911;28;20559;-82
2024/01/01 09:17:18;;;;;;;6.67;1.30;;;8.20;99.90;;;;;;5033365;28;20186;-82
2024/01/01 09:19:44;;;;;;;2.23;1.10;;;8.30;99.90;;;;;;5033120;28;20644;-82
2024/01/01 09:22:09;;;;;;;6.17;1.47;;;8.90;99.90;;;;;;5032721;28;20184;-81
2024/01/01 09:24:35;;;;;;;2.60;1.20;;;8.30;99.90;;;;;;5032267;28;20243;-81
2024/01/01 09:27:01;;;;;;;2.07;0.83;;;8.70;99.90;;;;;;5030303;28;20187;-83
2024/01/01 09:29:27;;;;;;;2.83;1.53;;;8.80;99.90;;;;;;5027473;28;20195;-81
2024/01/01 09:31:52;;;;;;;2.53;1.13;;;8.60;99.90;;;;;;5034905;28;20191;-82
2024/01/01 09:34:18;;;;;;;2.60;1.00;;;9.70;99.90;;;;;;5034180;28;20219;-82
2024/01/01 09:36:43;;;;;;;1.33;0.90;;;9.70;99.90;;;;;;5025853;28;20190;-82
2024/01/01 09:39:09;;;;;;;2.00;1.03;;;10.20;99.70;;;;;;5029361;28;20215;-82
2024/01/01 09:41:34;;;;;;;1.70;0.90;;;10.60;98.80;;;;;;5033881;28;20212;-81
2024/01/01 09:44:01;;;;;;;3.53;1.83;;;10.70;98.30;;;;;;5033554;28;20220;-82
2024/01/01 09:46:32;;;;;;;2.33;1.13;;;10.50;97.70;;;;;;5030697;28;20189;-82
2024/01/01 09:48:59;;;;;;;4.05;1.00;;;10.00;97.90;;;;;;5028330;28;20186;-83
2024/01/01 09:51:24;;;;;;;2.80;1.42;;;10.20;98.20;;;;;;5034887;28;20219;-83
2024/01/01 09:53:51;;;;;;;3.17;0.83;;;10.60;98.20;;;;;;5035776;28;20190;-83
2024/01/01 09:56:17;;;;;;;5.60;1.00;;;10.30;97.60;;;;;;5032321;28;20195;-83
2024/01/01 09:58:44;;;;;;;2.20;1.98;;;10.30;97.00;;;;;;5030266;28;20209;-83
2024/01/01 10:01:11;;;;;;;3.15;1.05;;;10.90;97.50;;;;;;5032011;28;20492;-82
2024/01/01 10:03:37;;;;;;;2.22;1.08;;;10.80;97.10;;;;;;5033214;28;20214;-83
2024/01/01 10:06:10;;;;;;;5.85;1.42;;;11.10;96.90;;;;;;5033295;28;20212;-82
2024/01/01 10:08:37;;;;;;;1.60;0.93;;;11.40;95.90;;;;;;5030625;28;20228;-82
2024/01/01 10:11:18;;;;;;;1.40;0.75;;;11.70;95.50;;;;;;5029253;28;20186;-83
2024/01/01 10:13:44;;;;;;;2.67;1.00;;;11.70;94.90;;;;;;5029864;28;20565;-82
2024/01/01 10:16:10;;;;;;;1.63;0.90;;;11.40;94.70;;;;;;5031720;28;20194;-82
2024/01/01 10:18:36;;;;;;;1.50;0.93;;;11.00;94.90;;;;;;5029463;28;20475;-81
2024/01/01 10:21:13;;;;;;;1.47;0.90;;;10.80;95.40;;;;;;5031646;28;20186;-81
2024/01/01 10:23:39;;;;;;;1.50;1.00;;;11.30;95.30;;;;;;5028143;28;20173;-81
2024/01/01 10:26:09;;;;;;;1.57;0.77;;;11.70;95.50;;;;;;5031355;28;20186;-81
2024/01/01 10:28:35;;;;;;;5.28;2.42;;;11.40;94.20;;;;;;5026430;28;20174;-81
2024/01/01 10:31:01;;;;;;;2.40;0.70;;;11.50;93.80;;;;;;5030047;28;20189;-81
2024/01/01 10:33:29;;;;;;;2.00;0.95;;;11.50;93.60;;;;;;5030762;28;20204;-82
2024/01/01 10:35:58;;;;;;;3.78;0.70;;;12.10;93.70;;;;;;5029287;28;20896;-82
2024/01/01 10:38:25;;;;;;;2.40;0.93;;;12.20;93.50;;;;;;5026758;28;20304;-82
2024/01/01 10:40:54;;;;;;;2.15;1.00;;;12.20;92.60;;;;;;5029314;28;20408;-82
2024/01/01 10:43:27;;;;;;;2.65;1.10;;;12.40;92.50;;;;;;5027747;28;20186;-81
2024/01/01 10:46:13;;;;;;;4.38;1.23;;;12.40;92.10;;;;;;5030297;28;20262;-81
2024/01/01 10:48:41;;;;;;;3.88;1.27;;;12.10;92.20;;;;;;5032759;28;20190;-81
2024/01/01 10:51:29;;;;;;;1.80;1.35;;;12.30;92.10;;;;;;5028248;28;20245;-82
2024/01/01 10:54:10;;;;;;;2.45;1.40;;;11.90;92.40;;;;;;5029359;28;20229;-82
2024/01/01 10:57:17;;;;;;;4.57;1.70;;;11.50;92.50;;;;;;5032206;28;20182;-82
2024/01/01 11:00:11;;;;;;;2.97;0.88;;;11.20;93.00;;;;;;5038459;28;20233;-82
2024/01/01 11:02:39;;;;;;;2.65;0.88;;;11.40;93.70;;;;;;5044525;28;20195;-81
2024/01/01 11:05:08;;;;;;;2.85;1.20;;;11.00;93.40;;;;;;5034827;28;20202;-82
2024/01/01 11:07:52;;;;;;;9.00;3.85;;;11.60;93.70;;;;;;5026752;28;20193;-81
2024/01/01 11:10:45;;;;;;;1.70;1.00;;;11.40;93.90;;;;;;5028940;28;20189;-82
2024/01/01 11:13:26;;;;;;;1.70;1.20;;;10.80;94.10;;;;;;5028742;28;20642;-82
2024/01/01 11:15:59;;;;;;;2.58;1.30;;;10.60;94.00;;;;;;5035134;28;20253;-82
2024/01/01 11:18:35;;;;;;;7.43;1.65;;;11.00;94.00;;;;;;5033014;28;20213;-82
2024/01/01 11:21:01;;;;;;;4.07;2.00;;;11.00;93.70;;;;;;5030719;28;20187;-82
2024/01/01 11:23:45;;;;;;;3.03;1.50;;;10.30;94.10;;;;;;5031458;28;20205;-82
2024/01/01 11:26:26;;;;;;;3.63;1.10;;;10.70;93.80;;;;;;5044958;28;20809;-81
2024/01/01 11:28:53;;;;;;;2.15;1.20;;;11.10;94.30;;;;;;5027632;28;20188;-82
2024/01/01 11:31:18;;;;;;;4.78;1.40;;;11.30;94.10;;;;;;5027603;28;20217;-82
2024/01/01 11:33:44;;;;;;;2.57;1.40;;;10.80;93.50;;;;;;5032750;28;20221;-82
2024/01/01 11:36:10;;;;;;;2.53;1.43;;;10.70;93.40;;;;;;5028323;28;20184;-82
2024/01/01 11:38:39;;;;;;;2.42;1.30;;;11.20;93.30;;;;;;5027446;28;20236;-82
2024/01/01 11:41:05;;;;;;;3.10;1.40;;;10.50;93.00;;;;;;5028847;28;20185;-82
2024/01/01 11:43:32;;;;;;;3.72;1.55;;;10.40;93.10;;;;;;5031209;28;20183;-82
2024/01/01 11:45:58;;;;;;;3.55;1.52;;;10.50;93.20;;;;;;5032527;28;20184;-82
2024/01/01 11:48:24;;;;;;;3.07;1.50;;;11.00;93.70;;;;;;5032640;28;20547;-82
2024/01/01 11:50:50;;;;;;;2.15;1.30;;;10.60;93.30;;;;;;5031080;28;20462;-82
2024/01/01 11:53:16;;;;;;;3.03;1.15;;;10.70;93.40;;;;;;5032397;28;20181;-82
2024/01/01 11:55:41;;;;;;;20.73;17.73;;;10.50;93.40;;;;;;5029979;28;20212;-82
2024/01/01 11:58:08;;;;;;;2.90;1.70;;;10.40;93.50;;;;;;5031514;28;20458;-82
2024/01/01 12:00:35;;;;;;;2.75;1.30;;;10.90;93.80;;;;;;5037168;28;20203;-82
2024/01/01 12:03:03;;;;;;;5.38;1.90;;;10.90;93.80;;;;;;5037460;28;20200;-81
2024/01/01 12:05:28;;;;;;;4.38;2.03;;;11.20;93.40;;;;;;5029868;28;20214;-82
2024/01/01 12:07:54;;;;;;;6.77;1.50;;;10.70;93.00;;;;;;5028142;28;20593;-82
2024/01/01 12:10:20;;;;;;;3.07;1.37;;;10.80;92.50;;;;;;5032667;28;20182;-82
2024/01/01 12:12:47;;;;;;;2.47;1.33;;;10.80;92.40;;;;;;5026072;28;20308;-82
2024/01/01 12:15:15;;;;;;;5.70;1.60;;;11.10;92.80;;;;;;5033079;28;20697;-82
2024/01/01 12:17:42;;;;;;;3.55;1.65;;;11.00;92.70;;;;;;5028285;28;20196;-83
2024/01/01 12:20:12;;;;;;;5.25;1.88;;;11.30;92.90;;;;;;5030142;28;20229;-82
2024/01/01 12:22:38;;;;;;;3.85;2.00;;;11.00;92.80;;;;;;5025579;28;20181;-82
2024/01/01 12:25:04;;;;;;;5.63;1.50;;;10.40;92.60;;;;;;5027553;28;20211;-82
2024/01/01 12:27:30;;;;;;;2.05;0.98;;;10.50;93.50;;;;;;5027968;28;20188;-81
2024/01/01 12:29:57;;;;;;;2.03;1.10;;;10.60;94.50;;;;;;5027855;28;20199;-82
2024/01/01 12:32:23;;;;;;;5.88;1.50;;;10.80;96.10;;;;;;5028355;28;20193;-82
2024/01/01 12:34:50;;;;;;;7.22;1.40;;;10.20;95.80;;;;;;5031538;28;20574;-82
2024/01/01 12:37:16;;;;;;;3.72;1.20;;;10.40;96.20;;;;;;5031618;28;20654;-82
2024/01/01 12:39:41;;;;;;;2.10;1.20;;;10.10;95.80;;;;;;5028405;28;20227;-82
2024/01/01 12:42:07;;;;;;;2.43;1.40;;;10.50;95.40;;;;;;5028615;28;20194;-82
2024/01/01 12:44:33;;;;;;;4.13;1.10;;;10.70;95.40;;;;;;5025586;28;20198;-82
2024/01/01 12:46:59;;;;;;;4.70;1.10;;;11.10;95.10;;;;;;5030203;28;20184;-82
2024/01/01 12:49:25;;;;;;;1.67;1.10;;;10.40;94.40;;;;;;5029413;28;20195;-81